sensor_id;sensor_type;location;lat;lon;timestamp;temperature;humidity
8945;DHT22;4507;40.232;29.132;2023-08-20T00:01:57;27.00;57.70
8945;DHT22;4507;40.232;29.132;2023-08-20T00:04:28;27.00;57.80
8945;DHT22;4507;40.232;29.132;2023-08-20T00:06:58;27.00;57.60
8945;DHT22;4507;40.232;29.132;2023-08-20T00:09:27;27.00;57.60
8945;DHT22;4507;40.232;29.132;2023-08-20T00:11:57;27.00;57.70
8945;DHT22;4507;40.232;29.132;2023-08-20T00:14:55;27.00;57.70
8945;DHT22;4507;40.232;29.132;2023-08-20T00:17:26;27.00;57.90
8945;DHT22;4507;40.232;29.132;2023-08-20T00:19:56;27.00;57.90
8945;DHT22;4507;40.232;29.132;2023-08-20T00:22:25;27.00;58.00
8945;DHT22;4507;40.232;29.132;2023-08-20T00:24:55;26.90;58.00
8945;DHT22;4507;40.232;29.132;2023-08-20T00:27:24;26.90;58.20
8945;DHT22;4507;40.232;29.132;2023-08-20T00:29:52;26.90;58.20
8945;DHT22;4507;40.232;29.132;2023-08-20T00:32:23;26.90;58.20
8945;DHT22;4507;40.232;29.132;2023-08-20T00:34:52;26.90;58.30
8945;DHT22;4507;40.232;29.132;2023-08-20T00:37:21;26.90;58.40
8945;DHT22;4507;40.232;29.132;2023-08-20T00:39:55;26.90;58.40
8945;DHT22;4507;40.232;29.132;2023-08-20T00:42:27;26.90;58.60
8945;DHT22;4507;40.232;29.132;2023-08-20T00:44:58;26.80;58.70
8945;DHT22;4507;40.232;29.132;2023-08-20T00:54:59;26.80;59.30
8945;DHT22;4507;40.232;29.132;2023-08-20T00:57:29;26.70;59.70
8945;DHT22;4507;40.232;29.132;2023-08-20T01:00:07;26.60;60.00
8945;DHT22;4507;40.232;29.132;2023-08-20T01:02:39;26.50;60.40
8945;DHT22;4507;40.232;29.132;2023-08-20T01:05:12;26.50;60.80
8945;DHT22;4507;40.232;29.132;2023-08-20T01:08:00;26.50;61.10
8945;DHT22;4507;40.232;29.132;2023-08-20T01:10:40;26.40;61.60
8945;DHT22;4507;40.232;29.132;2023-08-20T01:13:11;26.30;61.80
8945;DHT22;4507;40.232;29.132;2023-08-20T01:16:18;26.30;62.00
8945;DHT22;4507;40.232;29.132;2023-08-20T01:19:04;26.30;62.30
8945;DHT22;4507;40.232;29.132;2023-08-20T01:21:38;26.20;63.30
8945;DHT22;4507;40.232;29.132;2023-08-20T01:24:27;26.10;62.90
8945;DHT22;4507;40.232;29.132;2023-08-20T01:27:16;26.10;63.10
8945;DHT22;4507;40.232;29.132;2023-08-20T01:29:50;26.00;63.30
8945;DHT22;4507;40.232;29.132;2023-08-20T01:32:23;26.00;63.50
8945;DHT22;4507;40.232;29.132;2023-08-20T01:35:00;25.90;63.90
8945;DHT22;4507;40.232;29.132;2023-08-20T01:40:43;25.80;64.50
8945;DHT22;4507;40.232;29.132;2023-08-20T01:43:18;25.80;64.80
8945;DHT22;4507;40.232;29.132;2023-08-20T01:45:50;25.70;65.00
8945;DHT22;4507;40.232;29.132;2023-08-20T01:48:38;25.60;65.20
8945;DHT22;4507;40.232;29.132;2023-08-20T01:54:54;25.50;65.90
8945;DHT22;4507;40.232;29.132;2023-08-20T01:57:25;25.50;66.60
8945;DHT22;4507;40.232;29.132;2023-08-20T01:59:54;25.40;66.50
8945;DHT22;4507;40.232;29.132;2023-08-20T02:02:27;25.40;66.90
8945;DHT22;4507;40.232;29.132;2023-08-20T02:04:56;25.40;67.30
8945;DHT22;4507;40.232;29.132;2023-08-20T02:07:25;25.30;67.60
8945;DHT22;4507;40.232;29.132;2023-08-20T02:09:54;25.30;67.70
8945;DHT22;4507;40.232;29.132;2023-08-20T02:12:23;25.20;67.70
8945;DHT22;4507;40.232;29.132;2023-08-20T02:14:54;25.20;68.00
8945;DHT22;4507;40.232;29.132;2023-08-20T02:17:26;25.10;68.30
8945;DHT22;4507;40.232;29.132;2023-08-20T02:19:55;25.10;68.60
8945;DHT22;4507;40.232;29.132;2023-08-20T02:22:24;25.00;68.80
8945;DHT22;4507;40.232;29.132;2023-08-20T02:28:17;24.90;69.60
8945;DHT22;4507;40.232;29.132;2023-08-20T02:30:47;24.80;69.80
8945;DHT22;4507;40.232;29.132;2023-08-20T02:33:17;24.70;70.30
8945;DHT22;4507;40.232;29.132;2023-08-20T02:35:46;24.70;70.70
8945;DHT22;4507;40.232;29.132;2023-08-20T02:38:15;24.70;71.10
8945;DHT22;4507;40.232;29.132;2023-08-20T02:40:50;24.60;71.30
8945;DHT22;4507;40.232;29.132;2023-08-20T02:43:43;24.60;71.40
8945;DHT22;4507;40.232;29.132;2023-08-20T02:46:12;24.60;71.60
8945;DHT22;4507;40.232;29.132;2023-08-20T02:48:43;24.60;71.50
8945;DHT22;4507;40.232;29.132;2023-08-20T02:51:13;24.60;71.30
8945;DHT22;4507;40.232;29.132;2023-08-20T02:53:42;24.70;71.30
8945;DHT22;4507;40.232;29.132;2023-08-20T02:56:11;24.70;71.80
8945;DHT22;4507;40.232;29.132;2023-08-20T02:58:40;24.70;72.10
8945;DHT22;4507;40.232;29.132;2023-08-20T03:01:18;24.70;72.30
8945;DHT22;4507;40.232;29.132;2023-08-20T03:07:13;24.60;72.50
8945;DHT22;4507;40.232;29.132;2023-08-20T03:09:42;24.50;72.70
8945;DHT22;4507;40.232;29.132;2023-08-20T03:12:11;24.40;73.00
8945;DHT22;4507;40.232;29.132;2023-08-20T03:14:40;24.40;73.40
8945;DHT22;4507;40.232;29.132;2023-08-20T03:17:09;24.30;73.60
8945;DHT22;4507;40.232;29.132;2023-08-20T03:19:53;24.20;73.80
8945;DHT22;4507;40.232;29.132;2023-08-20T03:22:26;24.20;74.10
8945;DHT22;4507;40.232;29.132;2023-08-20T03:24:56;24.10;74.50
8945;DHT22;4507;40.232;29.132;2023-08-20T03:27:30;24.00;74.80
8945;DHT22;4507;40.232;29.132;2023-08-20T03:30:00;24.00;75.10
8945;DHT22;4507;40.232;29.132;2023-08-20T03:32:30;23.90;75.30
8945;DHT22;4507;40.232;29.132;2023-08-20T03:35:02;23.90;75.50
8945;DHT22;4507;40.232;29.132;2023-08-20T03:41:33;23.80;76.00
8945;DHT22;4507;40.232;29.132;2023-08-20T03:44:18;23.80;76.40
8945;DHT22;4507;40.232;29.132;2023-08-20T03:46:52;23.80;76.70
8945;DHT22;4507;40.232;29.132;2023-08-20T03:53:23;23.70;76.60
8945;DHT22;4507;40.232;29.132;2023-08-20T04:03:19;23.80;75.60
8945;DHT22;4507;40.232;29.132;2023-08-20T04:05:51;23.80;75.30
8945;DHT22;4507;40.232;29.132;2023-08-20T04:08:23;23.90;75.10
8945;DHT22;4507;40.232;29.132;2023-08-20T04:11:15;24.00;74.90
8945;DHT22;4507;40.232;29.132;2023-08-20T04:13:51;24.20;74.70
8945;DHT22;4507;40.232;29.132;2023-08-20T04:24:11;24.30;73.80
8945;DHT22;4507;40.232;29.132;2023-08-20T04:26:41;24.40;73.60
8945;DHT22;4507;40.232;29.132;2023-08-20T04:29:12;24.50;73.30
8945;DHT22;4507;40.232;29.132;2023-08-20T04:31:40;24.60;73.20
8945;DHT22;4507;40.232;29.132;2023-08-20T04:34:10;24.70;73.10
8945;DHT22;4507;40.232;29.132;2023-08-20T04:36:46;24.70;72.90
8945;DHT22;4507;40.232;29.132;2023-08-20T04:39:17;24.80;72.70
8945;DHT22;4507;40.232;29.132;2023-08-20T04:41:52;24.90;72.50
8945;DHT22;4507;40.232;29.132;2023-08-20T04:44:26;25.00;72.30
8945;DHT22;4507;40.232;29.132;2023-08-20T04:46:56;25.00;71.90
8945;DHT22;4507;40.232;29.132;2023-08-20T04:49:25;25.10;71.60
8945;DHT22;4507;40.232;29.132;2023-08-20T04:51:56;25.20;71.50
8945;DHT22;4507;40.232;29.132;2023-08-20T04:54:27;25.20;71.40
8945;DHT22;4507;40.232;29.132;2023-08-20T04:56:56;25.30;71.40
8945;DHT22;4507;40.232;29.132;2023-08-20T04:59:28;25.40;71.20
8945;DHT22;4507;40.232;29.132;2023-08-20T05:06:21;25.50;70.70
8945;DHT22;4507;40.232;29.132;2023-08-20T05:08:50;25.70;70.70
8945;DHT22;4507;40.232;29.132;2023-08-20T05:11:22;25.80;70.80
8945;DHT22;4507;40.232;29.132;2023-08-20T05:13:52;25.90;70.40
8945;DHT22;4507;40.232;29.132;2023-08-20T05:16:24;26.00;70.40
8945;DHT22;4507;40.232;29.132;2023-08-20T05:19:00;26.10;70.50
8945;DHT22;4507;40.232;29.132;2023-08-20T05:21:29;26.20;70.60
8945;DHT22;4507;40.232;29.132;2023-08-20T05:23:58;26.30;70.20
8945;DHT22;4507;40.232;29.132;2023-08-20T05:26:29;26.30;69.80
8945;DHT22;4507;40.232;29.132;2023-08-20T05:28:58;26.40;69.70
8945;DHT22;4507;40.232;29.132;2023-08-20T05:31:30;26.50;69.70
8945;DHT22;4507;40.232;29.132;2023-08-20T05:34:01;26.50;69.40
8945;DHT22;4507;40.232;29.132;2023-08-20T05:36:35;26.60;69.50
8945;DHT22;4507;40.232;29.132;2023-08-20T05:42:51;26.70;69.70
8945;DHT22;4507;40.232;29.132;2023-08-20T05:45:23;26.80;70.00
8945;DHT22;4507;40.232;29.132;2023-08-20T05:47:52;26.80;70.20
8945;DHT22;4507;40.232;29.132;2023-08-20T05:50:26;26.90;70.20
8945;DHT22;4507;40.232;29.132;2023-08-20T06:00:26;27.20;69.50
8945;DHT22;4507;40.232;29.132;2023-08-20T06:02:55;27.30;69.50
8945;DHT22;4507;40.232;29.132;2023-08-20T06:05:24;27.40;69.50
8945;DHT22;4507;40.232;29.132;2023-08-20T06:07:59;27.50;69.10
8945;DHT22;4507;40.232;29.132;2023-08-20T06:10:47;27.50;69.00
8945;DHT22;4507;40.232;29.132;2023-08-20T06:13:16;27.60;69.00
8945;DHT22;4507;40.232;29.132;2023-08-20T06:15:46;27.70;68.70
8945;DHT22;4507;40.232;29.132;2023-08-20T06:18:15;27.80;68.80
8945;DHT22;4507;40.232;29.132;2023-08-20T06:20:44;27.80;68.50
8945;DHT22;4507;40.232;29.132;2023-08-20T06:23:13;27.90;67.70
8945;DHT22;4507;40.232;29.132;2023-08-20T06:26:02;28.00;67.10
8945;DHT22;4507;40.232;29.132;2023-08-20T06:36:02;28.30;66.10
8945;DHT22;4507;40.232;29.132;2023-08-20T06:42:32;28.60;64.30
8945;DHT22;4507;40.232;29.132;2023-08-20T06:45:08;28.80;63.80
8945;DHT22;4507;40.232;29.132;2023-08-20T06:57:58;29.40;62.00
8945;DHT22;4507;40.232;29.132;2023-08-20T07:00:29;29.50;59.70
8945;DHT22;4507;40.232;29.132;2023-08-20T07:02:58;29.60;59.10
8945;DHT22;4507;40.232;29.132;2023-08-20T07:05:27;29.70;58.20
8945;DHT22;4507;40.232;29.132;2023-08-20T07:15:24;29.90;56.40
8945;DHT22;4507;40.232;29.132;2023-08-20T07:17:58;30.00;56.20
8945;DHT22;4507;40.232;29.132;2023-08-20T07:20:32;30.10;55.60
8945;DHT22;4507;40.232;29.132;2023-08-20T07:27:26;30.40;53.70
8945;DHT22;4507;40.232;29.132;2023-08-20T07:30:30;30.50;52.20
8945;DHT22;4507;40.232;29.132;2023-08-20T07:32:59;30.60;51.20
8945;DHT22;4507;40.232;29.132;2023-08-20T07:35:32;30.70;50.20
8945;DHT22;4507;40.232;29.132;2023-08-20T07:38:05;30.80;49.80
8945;DHT22;4507;40.232;29.132;2023-08-20T07:40:35;30.90;50.70
8945;DHT22;4507;40.232;29.132;2023-08-20T07:43:04;31.00;50.80
8945;DHT22;4507;40.232;29.132;2023-08-20T07:45:35;31.00;50.00
8945;DHT22;4507;40.232;29.132;2023-08-20T07:48:05;31.10;48.60
8945;DHT22;4507;40.232;29.132;2023-08-20T07:50:34;31.20;48.10
8945;DHT22;4507;40.232;29.132;2023-08-20T07:53:03;31.20;48.30
8945;DHT22;4507;40.232;29.132;2023-08-20T07:55:32;31.30;49.00
8945;DHT22;4507;40.232;29.132;2023-08-20T07:58:01;31.30;47.10
8945;DHT22;4507;40.232;29.132;2023-08-20T08:00:30;31.40;47.20
8945;DHT22;4507;40.232;29.132;2023-08-20T08:03:01;31.40;47.70
8945;DHT22;4507;40.232;29.132;2023-08-20T08:05:30;31.50;48.20
8945;DHT22;4507;40.232;29.132;2023-08-20T08:07:59;31.60;47.90
8945;DHT22;4507;40.232;29.132;2023-08-20T08:10:28;31.60;47.40
8945;DHT22;4507;40.232;29.132;2023-08-20T08:12:57;31.70;47.30
8945;DHT22;4507;40.232;29.132;2023-08-20T08:15:39;31.80;47.80
8945;DHT22;4507;40.232;29.132;2023-08-20T08:18:13;31.90;48.30
8945;DHT22;4507;40.232;29.132;2023-08-20T08:20:43;32.00;47.50
8945;DHT22;4507;40.232;29.132;2023-08-20T08:23:30;32.10;47.50
8945;DHT22;4507;40.232;29.132;2023-08-20T08:26:02;32.20;47.00
8945;DHT22;4507;40.232;29.132;2023-08-20T08:31:44;32.10;46.30
8945;DHT22;4507;40.232;29.132;2023-08-20T08:38:15;32.10;48.30
8945;DHT22;4507;40.232;29.132;2023-08-20T08:40:48;32.00;49.00
8945;DHT22;4507;40.232;29.132;2023-08-20T08:43:20;32.00;49.30
8945;DHT22;4507;40.232;29.132;2023-08-20T08:45:49;31.90;49.80
8945;DHT22;4507;40.232;29.132;2023-08-20T08:48:19;31.90;49.40
8945;DHT22;4507;40.232;29.132;2023-08-20T08:50:49;31.80;49.90
8945;DHT22;4507;40.232;29.132;2023-08-20T08:53:21;31.90;50.40
8945;DHT22;4507;40.232;29.132;2023-08-20T08:55:53;31.80;50.90
8945;DHT22;4507;40.232;29.132;2023-08-20T08:58:22;31.80;51.70
8945;DHT22;4507;40.232;29.132;2023-08-20T09:00:51;31.90;52.20
8945;DHT22;4507;40.232;29.132;2023-08-20T09:03:20;31.90;52.70
8945;DHT22;4507;40.232;29.132;2023-08-20T09:05:59;31.90;52.50
8945;DHT22;4507;40.232;29.132;2023-08-20T09:08:32;31.80;52.00
8945;DHT22;4507;40.232;29.132;2023-08-20T09:11:02;31.90;52.40
8945;DHT22;4507;40.232;29.132;2023-08-20T09:13:35;31.80;52.00
8945;DHT22;4507;40.232;29.132;2023-08-20T09:16:06;31.80;52.20
8945;DHT22;4507;40.232;29.132;2023-08-20T09:18:38;31.80;52.80
8945;DHT22;4507;40.232;29.132;2023-08-20T09:21:08;31.80;52.60
8945;DHT22;4507;40.232;29.132;2023-08-20T09:23:39;31.90;52.60
8945;DHT22;4507;40.232;29.132;2023-08-20T09:26:08;31.90;52.90
8945;DHT22;4507;40.232;29.132;2023-08-20T09:28:56;32.00;53.50
8945;DHT22;4507;40.232;29.132;2023-08-20T09:31:37;32.10;53.40
8945;DHT22;4507;40.232;29.132;2023-08-20T09:34:12;32.20;53.20
8945;DHT22;4507;40.232;29.132;2023-08-20T09:36:43;32.30;53.10
8945;DHT22;4507;40.232;29.132;2023-08-20T09:39:14;32.50;53.10
8945;DHT22;4507;40.232;29.132;2023-08-20T09:41:44;32.50;52.20
8945;DHT22;4507;40.232;29.132;2023-08-20T09:44:16;32.70;52.30
8945;DHT22;4507;40.232;29.132;2023-08-20T09:46:45;32.80;52.00
8945;DHT22;4507;40.232;29.132;2023-08-20T09:49:17;32.90;51.40
8945;DHT22;4507;40.232;29.132;2023-08-20T09:55:36;33.20;51.50
8945;DHT22;4507;40.232;29.132;2023-08-20T09:58:07;33.20;50.30
8945;DHT22;4507;40.232;29.132;2023-08-20T10:00:37;33.30;50.30
8945;DHT22;4507;40.232;29.132;2023-08-20T10:03:06;33.30;50.00
8945;DHT22;4507;40.232;29.132;2023-08-20T10:09:38;33.40;50.50
8945;DHT22;4507;40.232;29.132;2023-08-20T10:19:10;33.70;48.70
8945;DHT22;4507;40.232;29.132;2023-08-20T10:32:44;33.60;48.40
8945;DHT22;4507;40.232;29.132;2023-08-20T10:35:17;33.60;48.50
8945;DHT22;4507;40.232;29.132;2023-08-20T10:38:03;33.50;48.80
8945;DHT22;4507;40.232;29.132;2023-08-20T10:41:05;33.50;48.80
8945;DHT22;4507;40.232;29.132;2023-08-20T10:43:35;33.50;49.20
8945;DHT22;4507;40.232;29.132;2023-08-20T10:46:13;33.50;49.80
8945;DHT22;4507;40.232;29.132;2023-08-20T10:48:47;33.60;50.40
8945;DHT22;4507;40.232;29.132;2023-08-20T10:51:18;33.70;50.10
8945;DHT22;4507;40.232;29.132;2023-08-20T10:54:05;33.80;49.60
8945;DHT22;4507;40.232;29.132;2023-08-20T10:56:54;34.00;48.80
8945;DHT22;4507;40.232;29.132;2023-08-20T10:59:27;34.00;48.40
8945;DHT22;4507;40.232;29.132;2023-08-20T11:01:58;34.00;48.50
8945;DHT22;4507;40.232;29.132;2023-08-20T11:04:28;34.10;48.40
8945;DHT22;4507;40.232;29.132;2023-08-20T11:07:01;34.20;47.80
8945;DHT22;4507;40.232;29.132;2023-08-20T11:09:32;34.20;48.40
8945;DHT22;4507;40.232;29.132;2023-08-20T11:16:02;34.60;49.20
8945;DHT22;4507;40.232;29.132;2023-08-20T11:18:51;34.80;47.30
8945;DHT22;4507;40.232;29.132;2023-08-20T11:21:20;35.10;47.80
8945;DHT22;4507;40.232;29.132;2023-08-20T11:23:51;35.20;47.00
8945;DHT22;4507;40.232;29.132;2023-08-20T11:26:22;35.50;46.50
8945;DHT22;4507;40.232;29.132;2023-08-20T11:28:51;35.70;45.90
8945;DHT22;4507;40.232;29.132;2023-08-20T11:31:20;35.90;45.70
8945;DHT22;4507;40.232;29.132;2023-08-20T11:33:50;36.00;46.00
8945;DHT22;4507;40.232;29.132;2023-08-20T11:36:21;36.20;45.30
8945;DHT22;4507;40.232;29.132;2023-08-20T11:38:52;36.40;45.00
8945;DHT22;4507;40.232;29.132;2023-08-20T11:41:21;36.50;44.20
8945;DHT22;4507;40.232;29.132;2023-08-20T11:43:52;36.60;44.30
8945;DHT22;4507;40.232;29.132;2023-08-20T11:46:22;36.80;44.20
8945;DHT22;4507;40.232;29.132;2023-08-20T11:49:11;36.90;43.40
8945;DHT22;4507;40.232;29.132;2023-08-20T11:51:46;37.10;42.80
8945;DHT22;4507;40.232;29.132;2023-08-20T11:54:36;37.20;43.20
8945;DHT22;4507;40.232;29.132;2023-08-20T11:57:06;37.20;43.20
8945;DHT22;4507;40.232;29.132;2023-08-20T11:59:35;37.20;42.90
8945;DHT22;4507;40.232;29.132;2023-08-20T12:02:04;37.20;42.40
8945;DHT22;4507;40.232;29.132;2023-08-20T12:04:33;37.20;42.70
8945;DHT22;4507;40.232;29.132;2023-08-20T12:07:04;37.10;42.50
8945;DHT22;4507;40.232;29.132;2023-08-20T12:09:35;37.10;43.20
8945;DHT22;4507;40.232;29.132;2023-08-20T12:12:06;37.00;43.60
8945;DHT22;4507;40.232;29.132;2023-08-20T12:14:36;36.90;43.60
8945;DHT22;4507;40.232;29.132;2023-08-20T12:17:05;36.80;43.30
8945;DHT22;4507;40.232;29.132;2023-08-20T12:19:34;36.80;43.30
8945;DHT22;4507;40.232;29.132;2023-08-20T12:22:03;36.60;43.30
8945;DHT22;4507;40.232;29.132;2023-08-20T12:24:37;36.50;43.50
8945;DHT22;4507;40.232;29.132;2023-08-20T12:27:10;36.30;42.40
8945;DHT22;4507;40.232;29.132;2023-08-20T12:29:39;36.00;42.50
8945;DHT22;4507;40.232;29.132;2023-08-20T12:32:08;35.90;44.10
8945;DHT22;4507;40.232;29.132;2023-08-20T12:34:37;35.80;44.30
8945;DHT22;4507;40.232;29.132;2023-08-20T12:37:06;35.70;44.40
8945;DHT22;4507;40.232;29.132;2023-08-20T12:39:36;35.60;44.50
8945;DHT22;4507;40.232;29.132;2023-08-20T12:42:06;35.50;45.00
8945;DHT22;4507;40.232;29.132;2023-08-20T12:44:35;35.50;44.40
8945;DHT22;4507;40.232;29.132;2023-08-20T12:47:04;35.50;44.20
8945;DHT22;4507;40.232;29.132;2023-08-20T12:49:34;35.50;44.70
8945;DHT22;4507;40.232;29.132;2023-08-20T12:52:03;35.40;44.60
8945;DHT22;4507;40.232;29.132;2023-08-20T12:54:32;35.40;44.90
8945;DHT22;4507;40.232;29.132;2023-08-20T12:57:03;35.40;45.00
8945;DHT22;4507;40.232;29.132;2023-08-20T12:59:32;35.40;44.80
8945;DHT22;4507;40.232;29.132;2023-08-20T13:02:01;35.40;44.80
8945;DHT22;4507;40.232;29.132;2023-08-20T13:04:31;35.50;44.80
8945;DHT22;4507;40.232;29.132;2023-08-20T13:07:00;35.40;44.80
8945;DHT22;4507;40.232;29.132;2023-08-20T13:09:30;35.40;45.10
8945;DHT22;4507;40.232;29.132;2023-08-20T13:12:02;35.30;45.30
8945;DHT22;4507;40.232;29.132;2023-08-20T13:14:33;35.20;45.70
8945;DHT22;4507;40.232;29.132;2023-08-20T13:17:03;35.20;45.30
8945;DHT22;4507;40.232;29.132;2023-08-20T13:19:32;35.20;45.40
8945;DHT22;4507;40.232;29.132;2023-08-20T13:22:01;35.20;46.10
8945;DHT22;4507;40.232;29.132;2023-08-20T13:24:30;35.10;46.10
8945;DHT22;4507;40.232;29.132;2023-08-20T13:26:59;35.10;46.00
8945;DHT22;4507;40.232;29.132;2023-08-20T13:29:30;35.10;45.70
8945;DHT22;4507;40.232;29.132;2023-08-20T13:31:59;35.00;45.60
8945;DHT22;4507;40.232;29.132;2023-08-20T13:34:28;34.90;45.50
8945;DHT22;4507;40.232;29.132;2023-08-20T13:36:57;34.80;45.70
8945;DHT22;4507;40.232;29.132;2023-08-20T13:39:26;34.70;46.30
8945;DHT22;4507;40.232;29.132;2023-08-20T13:41:55;34.70;46.70
8945;DHT22;4507;40.232;29.132;2023-08-20T13:44:24;34.60;46.80
8945;DHT22;4507;40.232;29.132;2023-08-20T13:46:55;34.50;46.80
8945;DHT22;4507;40.232;29.132;2023-08-20T13:49:24;34.50;46.90
8945;DHT22;4507;40.232;29.132;2023-08-20T13:51:53;34.40;46.80
8945;DHT22;4507;40.232;29.132;2023-08-20T13:54:22;34.40;46.50
8945;DHT22;4507;40.232;29.132;2023-08-20T13:56:51;34.30;46.90
8945;DHT22;4507;40.232;29.132;2023-08-20T13:59:20;34.30;47.60
8945;DHT22;4507;40.232;29.132;2023-08-20T14:01:49;34.30;47.30
8945;DHT22;4507;40.232;29.132;2023-08-20T14:04:20;34.30;46.00
8945;DHT22;4507;40.232;29.132;2023-08-20T14:06:49;34.30;46.00
8945;DHT22;4507;40.232;29.132;2023-08-20T14:09:18;34.30;46.40
8945;DHT22;4507;40.232;29.132;2023-08-20T14:11:47;34.30;46.60
8945;DHT22;4507;40.232;29.132;2023-08-20T14:14:16;34.30;46.00
8945;DHT22;4507;40.232;29.132;2023-08-20T14:16:45;34.30;46.30
8945;DHT22;4507;40.232;29.132;2023-08-20T14:19:14;34.30;46.20
8945;DHT22;4507;40.232;29.132;2023-08-20T14:22:03;34.20;46.30
8945;DHT22;4507;40.232;29.132;2023-08-20T14:24:32;34.20;45.50
8945;DHT22;4507;40.232;29.132;2023-08-20T14:27:01;34.20;45.90
8945;DHT22;4507;40.232;29.132;2023-08-20T14:29:30;34.20;46.30
8945;DHT22;4507;40.232;29.132;2023-08-20T14:31:59;34.20;46.10
8945;DHT22;4507;40.232;29.132;2023-08-20T14:34:28;34.10;46.10
8945;DHT22;4507;40.232;29.132;2023-08-20T14:37:00;34.10;45.70
8945;DHT22;4507;40.232;29.132;2023-08-20T14:39:36;34.00;46.00
8945;DHT22;4507;40.232;29.132;2023-08-20T14:42:05;34.00;46.10
8945;DHT22;4507;40.232;29.132;2023-08-20T14:44:34;33.90;46.20
8945;DHT22;4507;40.232;29.132;2023-08-20T14:47:03;33.90;46.50
8945;DHT22;4507;40.232;29.132;2023-08-20T14:49:33;33.90;46.90
8945;DHT22;4507;40.232;29.132;2023-08-20T14:52:02;33.80;46.80
8945;DHT22;4507;40.232;29.132;2023-08-20T14:54:47;33.80;46.70
8945;DHT22;4507;40.232;29.132;2023-08-20T14:57:23;33.70;46.70
8945;DHT22;4507;40.232;29.132;2023-08-20T15:00:07;33.70;46.40
8945;DHT22;4507;40.232;29.132;2023-08-20T15:02:37;33.60;46.80
8945;DHT22;4507;40.232;29.132;2023-08-20T15:05:07;33.60;47.00
8945;DHT22;4507;40.232;29.132;2023-08-20T15:07:36;33.60;46.80
8945;DHT22;4507;40.232;29.132;2023-08-20T15:10:07;33.50;46.50
8945;DHT22;4507;40.232;29.132;2023-08-20T15:12:37;33.50;46.70
8945;DHT22;4507;40.232;29.132;2023-08-20T15:15:07;33.40;47.00
8945;DHT22;4507;40.232;29.132;2023-08-20T15:17:37;33.40;47.00
8945;DHT22;4507;40.232;29.132;2023-08-20T15:20:08;33.10;47.10
8945;DHT22;4507;40.232;29.132;2023-08-20T15:22:39;33.20;47.20
8945;DHT22;4507;40.232;29.132;2023-08-20T15:25:10;33.20;47.30
8945;DHT22;4507;40.232;29.132;2023-08-20T15:31:45;33.00;47.50
8945;DHT22;4507;40.232;29.132;2023-08-20T15:34:16;32.90;48.00
8945;DHT22;4507;40.232;29.132;2023-08-20T15:36:45;32.90;48.20
8945;DHT22;4507;40.232;29.132;2023-08-20T15:39:14;32.80;48.20
8945;DHT22;4507;40.232;29.132;2023-08-20T15:41:47;32.70;48.40
8945;DHT22;4507;40.232;29.132;2023-08-20T15:44:16;32.60;48.70
8945;DHT22;4507;40.232;29.132;2023-08-20T15:46:53;32.60;49.10
8945;DHT22;4507;40.232;29.132;2023-08-20T15:52:58;32.40;49.90
8945;DHT22;4507;40.232;29.132;2023-08-20T15:55:28;32.40;50.10
8945;DHT22;4507;40.232;29.132;2023-08-20T15:57:58;32.30;50.40
8945;DHT22;4507;40.232;29.132;2023-08-20T16:00:28;32.20;50.80
8945;DHT22;4507;40.232;29.132;2023-08-20T16:02:57;32.20;51.10
8945;DHT22;4507;40.232;29.132;2023-08-20T16:05:28;32.10;51.30
8945;DHT22;4507;40.232;29.132;2023-08-20T16:07:57;32.10;51.50
8945;DHT22;4507;40.232;29.132;2023-08-20T16:10:26;32.00;51.50
8945;DHT22;4507;40.232;29.132;2023-08-20T16:12:56;31.90;51.70
8945;DHT22;4507;40.232;29.132;2023-08-20T16:15:26;31.90;51.70
8945;DHT22;4507;40.232;29.132;2023-08-20T16:17:57;31.80;51.60
8945;DHT22;4507;40.232;29.132;2023-08-20T16:20:26;31.70;51.80
8945;DHT22;4507;40.232;29.132;2023-08-20T16:22:55;31.70;52.10
8945;DHT22;4507;40.232;29.132;2023-08-20T16:25:24;31.60;52.20
8945;DHT22;4507;40.232;29.132;2023-08-20T16:27:53;31.60;52.20
8945;DHT22;4507;40.232;29.132;2023-08-20T16:30:23;31.50;51.70
8945;DHT22;4507;40.232;29.132;2023-08-20T16:32:53;31.40;51.70
8945;DHT22;4507;40.232;29.132;2023-08-20T16:35:23;31.30;52.00
8945;DHT22;4507;40.232;29.132;2023-08-20T16:37:53;31.20;52.20
8945;DHT22;4507;40.232;29.132;2023-08-20T16:40:32;31.20;52.50
8945;DHT22;4507;40.232;29.132;2023-08-20T16:43:09;31.10;52.70
8945;DHT22;4507;40.232;29.132;2023-08-20T16:45:58;31.00;53.00
8945;DHT22;4507;40.232;29.132;2023-08-20T16:48:41;30.90;52.90
8945;DHT22;4507;40.232;29.132;2023-08-20T16:51:11;30.80;53.30
8945;DHT22;4507;40.232;29.132;2023-08-20T16:53:40;30.80;53.60
8945;DHT22;4507;40.232;29.132;2023-08-20T16:56:15;30.80;53.90
8945;DHT22;4507;40.232;29.132;2023-08-20T16:58:44;30.70;53.90
8945;DHT22;4507;40.232;29.132;2023-08-20T17:01:14;30.70;54.10
8945;DHT22;4507;40.232;29.132;2023-08-20T17:03:54;30.60;54.10
8945;DHT22;4507;40.232;29.132;2023-08-20T17:06:25;30.60;54.30
8945;DHT22;4507;40.232;29.132;2023-08-20T17:20:59;30.30;54.30
8945;DHT22;4507;40.232;29.132;2023-08-20T17:23:34;30.20;54.80
8945;DHT22;4507;40.232;29.132;2023-08-20T17:26:04;30.20;54.10
8945;DHT22;4507;40.232;29.132;2023-08-20T17:28:36;30.20;54.10
8945;DHT22;4507;40.232;29.132;2023-08-20T17:31:05;30.10;54.20
8945;DHT22;4507;40.232;29.132;2023-08-20T17:33:35;30.10;54.20
8945;DHT22;4507;40.232;29.132;2023-08-20T17:36:06;30.10;54.30
8945;DHT22;4507;40.232;29.132;2023-08-20T17:38:35;30.10;54.40
8945;DHT22;4507;40.232;29.132;2023-08-20T17:41:06;30.00;54.60
8945;DHT22;4507;40.232;29.132;2023-08-20T17:43:35;30.00;54.50
8945;DHT22;4507;40.232;29.132;2023-08-20T17:46:05;30.00;54.60
8945;DHT22;4507;40.232;29.132;2023-08-20T17:48:34;30.00;54.50
8945;DHT22;4507;40.232;29.132;2023-08-20T17:51:03;29.90;54.30
8945;DHT22;4507;40.232;29.132;2023-08-20T17:53:34;29.80;54.20
8945;DHT22;4507;40.232;29.132;2023-08-20T17:56:04;29.80;54.20
8945;DHT22;4507;40.232;29.132;2023-08-20T17:58:34;29.80;54.10
8945;DHT22;4507;40.232;29.132;2023-08-20T18:01:03;29.70;54.00
8945;DHT22;4507;40.232;29.132;2023-08-20T18:03:32;29.70;54.10
8945;DHT22;4507;40.232;29.132;2023-08-20T18:06:02;29.70;54.00
8945;DHT22;4507;40.232;29.132;2023-08-20T18:08:31;29.70;54.10
8945;DHT22;4507;40.232;29.132;2023-08-20T18:11:02;29.60;54.00
8945;DHT22;4507;40.232;29.132;2023-08-20T18:13:31;29.60;54.00
8945;DHT22;4507;40.232;29.132;2023-08-20T18:16:00;29.60;54.00
8945;DHT22;4507;40.232;29.132;2023-08-20T18:18:30;29.50;53.90
8945;DHT22;4507;40.232;29.132;2023-08-20T18:21:00;29.60;53.90
8945;DHT22;4507;40.232;29.132;2023-08-20T18:23:29;29.50;53.80
8945;DHT22;4507;40.232;29.132;2023-08-20T18:25:58;29.50;53.70
8945;DHT22;4507;40.232;29.132;2023-08-20T18:28:29;29.40;53.50
8945;DHT22;4507;40.232;29.132;2023-08-20T18:31:00;29.40;53.60
8945;DHT22;4507;40.232;29.132;2023-08-20T18:33:31;29.40;53.70
8945;DHT22;4507;40.232;29.132;2023-08-20T18:36:01;29.40;53.60
8945;DHT22;4507;40.232;29.132;2023-08-20T18:38:39;29.30;53.50
8945;DHT22;4507;40.232;29.132;2023-08-20T18:41:09;29.30;53.60
8945;DHT22;4507;40.232;29.132;2023-08-20T18:43:41;29.20;53.50
8945;DHT22;4507;40.232;29.132;2023-08-20T18:46:11;29.20;53.50